Weather at Millbury Savings/West Heliport

Public forecast

Using degrees Fahrenheit for public forecast. Weather courtesy of forecast.io.

Closest aviation weather report (METAR) to Millbury Savings/West Heliport

Closest report is Worcester Regional Airport, 6.5 nm (12.1 km) NW. Retrieved 2020/09/27 23:54 UTC (50 minutes ago):

KORH 272354Z 19007KT 10SM BKN014 BKN028 OVC034 22/19 A3000 RMK AO2 SLP158 T02170189 10244 20217 53007

Closest aviation forecast (TAF) to Millbury Savings/West Heliport

Closest forecast is Worcester Regional Airport, 6.5 nm (12.1 km) NW. Retrieved 2020-09-28 00:42 UTC (2 minutes ago):

TAF KORH 272338Z 2800/2824 18005KT P6SM BKN025 FM280300 18005KT 5SM BR OVC003 FM280600 18004KT 1/4SM FG VCSH OVC003 FM281400 19007KT 4SM BR OVC012 FM281600 19008KT P6SM OVC025 FM281800 19010KT P6SM BKN035